createdAt,value
2022-12-07T07:02:05.821Z,128.00
2022-12-07T07:03:07.895Z,152.00
2022-12-07T07:04:09.887Z,176.00
2022-12-07T07:05:11.911Z,212.00
2022-12-07T07:06:14.025Z,240.00
2022-12-07T07:07:16.028Z,276.00
2022-12-07T07:08:22.557Z,332.00
2022-12-07T07:09:19.531Z,336.00
2022-12-07T07:10:21.538Z,312.00
2022-12-07T07:11:23.580Z,280.00
2022-12-07T07:12:25.577Z,292.00
2022-12-07T07:13:27.595Z,308.00
2022-12-07T07:14:29.596Z,336.00
2022-12-07T07:15:31.615Z,332.00
2022-12-07T07:16:33.670Z,364.00
2022-12-07T07:17:35.646Z,408.00
2022-12-07T07:18:37.613Z,468.00
2022-12-07T07:19:39.622Z,572.00
2022-12-07T07:20:41.625Z,660.00
2022-12-07T07:21:43.635Z,784.00
2022-12-07T07:22:45.673Z,844.00
2022-12-07T07:23:47.681Z,804.00
2022-12-07T07:24:49.684Z,712.00
2022-12-07T07:25:51.705Z,1032.00
2022-12-07T07:26:53.740Z,1244.00
2022-12-07T07:27:55.745Z,1172.00
2022-12-07T07:28:57.742Z,1024.00
2022-12-07T07:30:00.101Z,948.00
2022-12-07T07:31:01.344Z,928.00
2022-12-07T07:32:06.718Z,964.00
2022-12-07T07:33:04.498Z,1044.00
2022-12-07T07:34:06.500Z,1156.00
2022-12-07T07:35:08.506Z,1244.00
2022-12-07T07:36:10.524Z,1364.00
2022-12-07T07:37:16.162Z,1624.00
2022-12-07T07:38:13.985Z,1996.00
2022-12-07T07:39:16.005Z,2128.00
2022-12-07T07:40:18.008Z,1932.00
2022-12-07T07:41:20.009Z,1904.00
2022-12-07T07:42:22.012Z,1948.00
2022-12-07T07:43:24.012Z,2028.00
2022-12-07T07:44:30.211Z,2036.00
2022-12-07T07:45:27.439Z,2144.00
2022-12-07T07:46:29.454Z,2288.00
2022-12-07T07:47:32.269Z,2328.00
2022-12-07T07:48:33.195Z,2348.00
2022-12-07T07:49:35.229Z,2276.00
2022-12-07T07:50:37.247Z,2180.00
2022-12-07T07:51:39.247Z,2264.00
2022-12-07T07:52:41.286Z,2212.00
2022-12-07T07:53:43.284Z,2112.00
2022-12-07T07:54:45.287Z,2028.00
2022-12-07T07:55:47.308Z,2012.00
2022-12-07T07:56:49.310Z,2012.00
2022-12-07T07:57:54.783Z,2072.00
2022-12-07T07:58:52.716Z,2100.00
2022-12-07T07:59:54.734Z,2104.00
2022-12-07T08:00:56.735Z,2080.00
2022-12-07T08:01:58.812Z,2100.00
2022-12-07T08:03:00.828Z,2256.00
2022-12-07T08:04:02.851Z,2444.00
2022-12-07T08:05:04.992Z,2712.00
2022-12-07T08:06:07.028Z,2972.00
2022-12-07T08:07:09.058Z,3056.00
2022-12-07T08:08:11.162Z,3072.00
2022-12-07T08:09:13.175Z,2984.00
2022-12-07T08:10:15.198Z,2716.00
2022-12-07T08:11:17.209Z,2504.00
2022-12-07T08:12:19.227Z,2348.00
2022-12-07T08:13:24.844Z,2180.00
2022-12-07T08:14:22.705Z,2100.00
2022-12-07T08:15:24.728Z,2048.00
2022-12-07T08:16:26.802Z,2024.00
2022-12-07T08:17:28.812Z,1996.00
2022-12-07T08:18:30.811Z,2040.00
2022-12-07T08:19:32.833Z,2068.00
2022-12-07T08:20:34.838Z,2144.00
2022-12-07T08:21:37.696Z,2184.00
2022-12-07T08:22:38.595Z,2164.00
2022-12-07T08:23:40.604Z,1828.00
2022-12-07T08:24:42.606Z,2044.00
2022-12-07T08:25:44.637Z,2208.00
2022-12-07T08:26:46.652Z,2032.00
2022-12-07T08:27:48.647Z,1712.00
2022-12-07T08:28:50.663Z,1572.00
2022-12-07T08:29:52.669Z,1848.00
2022-12-07T08:30:54.790Z,2216.00
2022-12-07T08:31:56.841Z,2588.00
2022-12-07T08:32:58.843Z,3116.00
2022-12-07T08:34:00.861Z,3668.00
2022-12-07T08:35:02.863Z,4584.00
2022-12-07T08:36:04.890Z,5348.00
2022-12-07T08:37:06.886Z,5984.00
2022-12-07T08:38:08.907Z,6416.00
2022-12-07T08:40:12.361Z,4676.00
2022-12-07T08:41:14.382Z,4896.00
2022-12-07T08:42:16.380Z,5828.00
2022-12-07T08:43:18.421Z,5376.00
2022-12-07T08:44:20.446Z,5144.00
2022-12-07T08:45:26.992Z,5100.00
2022-12-07T08:46:23.975Z,4900.00
2022-12-07T08:47:25.977Z,4608.00
2022-12-07T08:48:28.001Z,4312.00
2022-12-07T08:49:30.008Z,3996.00
2022-12-07T08:50:32.007Z,3768.00
2022-12-07T08:51:34.015Z,3660.00
2022-12-07T08:52:36.063Z,3524.00
2022-12-07T08:53:38.093Z,3204.00
2022-12-07T08:54:40.213Z,2788.00
2022-12-07T08:55:42.336Z,2420.00
2022-12-07T08:56:44.327Z,2176.00
2022-12-07T08:57:46.345Z,1936.00
2022-12-07T08:58:48.415Z,1656.00
2022-12-07T08:59:50.441Z,1500.00
2022-12-07T09:00:52.442Z,1572.00
2022-12-07T09:01:54.634Z,1636.00
2022-12-07T09:02:55.589Z,1724.00
2022-12-07T09:03:57.597Z,1920.00
2022-12-07T09:04:59.604Z,2256.00
2022-12-07T09:06:01.803Z,2808.00
2022-12-07T09:07:02.877Z,3580.00
2022-12-07T09:08:04.901Z,4048.00
2022-12-07T09:09:06.904Z,4316.00
2022-12-07T09:10:08.914Z,4592.00
2022-12-07T09:11:10.932Z,5328.00
2022-12-07T09:12:12.952Z,4880.00
2022-12-07T09:13:14.974Z,4528.00
2022-12-07T09:14:17.004Z,4448.00
2022-12-07T09:15:19.041Z,3888.00
2022-12-07T09:16:21.139Z,3136.00
2022-12-07T09:17:23.156Z,2968.00
2022-12-07T09:18:25.159Z,3604.00
2022-12-07T09:19:27.162Z,3696.00
2022-12-07T09:20:29.296Z,3484.00
2022-12-07T09:21:31.298Z,3212.00
2022-12-07T09:22:33.317Z,3276.00
2022-12-07T09:23:35.327Z,2832.00
2022-12-07T09:24:37.346Z,2652.00
2022-12-07T09:25:39.347Z,2564.00
2022-12-07T09:26:41.378Z,2348.00
2022-12-07T09:27:43.403Z,2156.00
2022-12-07T09:28:45.398Z,2108.00
2022-12-07T09:29:47.422Z,1892.00
2022-12-07T09:31:21.572Z,1796.00
2022-12-07T09:31:50.961Z,2052.00
2022-12-07T09:32:52.941Z,1920.00
2022-12-07T09:33:55.057Z,1520.00
2022-12-07T09:34:57.142Z,1336.00
2022-12-07T09:35:59.143Z,1236.00
2022-12-07T09:37:01.167Z,1052.00
2022-12-07T09:38:03.172Z,680.00
2022-12-07T09:39:05.182Z,628.00
2022-12-07T09:40:07.613Z,676.00
2022-12-07T09:41:08.809Z,916.00
2022-12-07T09:42:10.830Z,856.00
2022-12-07T09:43:12.906Z,972.00
2022-12-07T09:44:14.879Z,876.00
2022-12-07T09:45:16.888Z,1000.00
2022-12-07T09:46:19.039Z,1036.00
2022-12-07T09:47:21.055Z,928.00
2022-12-07T09:48:23.053Z,956.00
2022-12-07T09:49:25.085Z,1096.00
2022-12-07T09:50:27.092Z,1148.00
2022-12-07T09:51:29.126Z,1332.00
2022-12-07T09:52:37.083Z,1684.00
2022-12-07T09:53:33.340Z,1848.00
2022-12-07T09:54:34.261Z,1912.00
2022-12-07T09:55:36.262Z,2312.00
2022-12-07T09:56:38.306Z,3120.00
2022-12-07T09:57:40.341Z,3228.00
2022-12-07T09:58:42.329Z,2612.00
2022-12-07T09:59:44.377Z,1808.00
2022-12-07T10:00:46.401Z,1996.00
2022-12-07T10:01:48.562Z,2028.00
2022-12-07T10:02:50.586Z,2120.00
2022-12-07T10:03:52.655Z,2464.00
2022-12-07T10:04:54.794Z,3016.00
2022-12-07T10:05:56.796Z,3316.00
2022-12-07T10:06:58.845Z,3528.00
2022-12-07T10:08:00.935Z,2596.00
2022-12-07T10:09:02.911Z,2128.00
2022-12-07T10:10:04.911Z,1796.00
2022-12-07T10:11:06.902Z,1432.00
2022-12-07T10:12:08.910Z,1772.00
2022-12-07T10:13:10.924Z,2116.00
2022-12-07T10:14:12.933Z,2144.00
2022-12-07T10:15:14.949Z,3212.00
2022-12-07T10:16:16.989Z,4016.00
2022-12-07T10:17:19.005Z,4388.00
2022-12-07T10:18:21.028Z,4496.00
2022-12-07T10:19:23.050Z,4908.00
2022-12-07T10:20:25.060Z,3504.00
2022-12-07T10:21:27.048Z,4300.00
2022-12-07T10:22:32.032Z,4488.00
2022-12-07T10:23:30.941Z,5240.00
2022-12-07T10:24:32.943Z,5932.00
2022-12-07T10:25:34.950Z,6536.00
2022-12-07T10:26:36.958Z,6180.00
2022-12-07T10:27:38.988Z,5480.00
2022-12-07T10:28:42.394Z,5012.00
2022-12-07T10:29:42.382Z,4432.00
2022-12-07T10:30:44.431Z,3844.00
2022-12-07T10:31:46.503Z,3308.00
2022-12-07T10:32:48.592Z,3344.00
2022-12-07T10:33:50.625Z,3856.00
2022-12-07T10:34:52.647Z,4384.00
2022-12-07T10:35:54.654Z,4368.00
2022-12-07T10:36:56.677Z,4612.00
2022-12-07T10:37:58.726Z,4400.00
2022-12-07T10:39:00.762Z,4024.00
2022-12-07T10:40:02.793Z,3556.00
2022-12-07T10:41:04.804Z,2820.00
2022-12-07T10:42:06.835Z,3688.00
2022-12-07T10:43:08.864Z,5492.00
2022-12-07T10:44:10.903Z,6156.00
2022-12-07T10:45:12.979Z,6600.00
2022-12-07T10:46:15.327Z,7072.00
2022-12-07T10:47:25.426Z,7136.00
2022-12-07T10:48:17.520Z,6380.00
2022-12-07T10:49:19.539Z,5448.00
2022-12-07T10:50:21.561Z,5088.00
2022-12-07T10:51:23.581Z,4288.00
2022-12-07T10:52:25.584Z,4484.00
2022-12-07T10:53:27.595Z,3784.00
2022-12-07T10:54:29.585Z,3532.00
2022-12-07T10:55:31.608Z,4192.00
2022-12-07T10:56:33.624Z,4208.00
2022-12-07T10:57:35.631Z,4312.00
2022-12-07T10:58:37.664Z,4508.00
2022-12-07T10:59:39.659Z,3932.00
2022-12-07T11:00:41.671Z,3572.00
2022-12-07T11:01:43.693Z,3500.00
2022-12-07T11:02:45.749Z,2976.00
2022-12-07T11:03:47.750Z,2756.00
2022-12-07T11:04:49.769Z,2324.00
2022-12-07T11:05:51.766Z,1760.00
2022-12-07T11:06:53.784Z,1880.00
2022-12-07T11:07:57.169Z,1564.00
2022-12-07T11:08:57.063Z,1324.00
2022-12-07T11:10:08.549Z,1180.00
2022-12-07T11:11:00.489Z,1260.00
2022-12-07T11:12:02.511Z,1480.00
2022-12-07T11:13:04.540Z,1684.00
2022-12-07T11:14:06.580Z,1920.00
2022-12-07T11:15:08.609Z,1908.00
2022-12-07T11:16:10.702Z,1960.00
2022-12-07T11:17:12.690Z,1684.00
2022-12-07T11:18:14.735Z,1692.00
2022-12-07T11:19:16.799Z,1652.00
2022-12-07T11:20:18.844Z,1420.00
2022-12-07T11:21:20.862Z,1312.00
2022-12-07T11:22:22.879Z,1564.00
2022-12-07T11:23:24.886Z,1644.00
2022-12-07T11:24:26.897Z,1512.00
2022-12-07T11:25:29.275Z,1320.00
2022-12-07T11:26:30.169Z,1240.00
2022-12-07T11:27:32.174Z,1532.00
2022-12-07T11:28:34.193Z,1328.00
2022-12-07T11:29:36.217Z,1372.00
2022-12-07T11:30:38.263Z,1208.00
2022-12-07T11:31:40.303Z,1128.00
2022-12-07T11:32:42.589Z,1008.00
2022-12-07T11:33:43.518Z,888.00
2022-12-07T11:34:45.608Z,920.00
2022-12-07T11:35:47.638Z,1052.00
2022-12-07T11:36:49.660Z,1368.00
2022-12-07T11:37:51.686Z,1256.00
2022-12-07T11:38:53.685Z,1528.00
2022-12-07T11:39:55.697Z,1524.00
2022-12-07T11:40:58.237Z,1520.00
2022-12-07T11:41:59.149Z,1980.00
2022-12-07T11:43:01.137Z,3208.00
2022-12-07T11:44:03.171Z,2048.00
2022-12-07T11:45:05.182Z,1488.00
2022-12-07T11:46:07.208Z,1476.00
2022-12-07T11:47:09.283Z,1876.00
2022-12-07T11:48:11.274Z,2772.00
2022-12-07T11:49:13.274Z,4212.00
2022-12-07T11:50:15.309Z,5060.00
2022-12-07T11:51:17.296Z,4688.00
2022-12-07T11:52:19.326Z,5596.00
2022-12-07T11:53:21.426Z,6252.00
2022-12-07T11:54:23.436Z,5528.00
2022-12-07T11:55:25.453Z,4700.00
2022-12-07T11:56:27.465Z,4596.00
2022-12-07T11:57:29.484Z,4896.00
2022-12-07T11:58:31.483Z,4592.00
2022-12-07T11:59:33.505Z,4912.00
2022-12-07T12:00:35.536Z,4644.00
2022-12-07T12:01:37.587Z,3968.00
2022-12-07T12:02:39.658Z,3212.00
2022-12-07T12:03:41.789Z,4180.00
2022-12-07T12:04:43.783Z,4920.00
2022-12-07T12:05:45.806Z,5152.00
2022-12-07T12:06:47.983Z,4296.00
2022-12-07T12:09:53.449Z,5008.00
2022-12-07T12:10:54.545Z,5040.00
2022-12-07T12:14:34.827Z,4812.00
2022-12-07T12:14:46.551Z,4836.00
2022-12-07T12:15:44.111Z,4380.00
2022-12-07T12:16:46.207Z,4564.00
2022-12-07T12:17:48.204Z,4580.00
2022-12-07T12:18:50.225Z,4948.00
2022-12-07T12:19:52.227Z,4848.00
2022-12-07T12:20:54.247Z,4492.00
2022-12-07T12:21:58.350Z,3848.00
2022-12-07T12:22:58.293Z,3600.00
2022-12-07T12:24:00.313Z,4064.00
2022-12-07T12:25:02.716Z,4496.00
2022-12-07T12:26:03.831Z,4796.00
2022-12-07T12:27:05.852Z,5220.00
2022-12-07T12:28:07.853Z,5464.00
2022-12-07T12:29:09.858Z,5688.00
2022-12-07T12:30:11.861Z,5584.00
2022-12-07T12:31:13.870Z,5152.00
2022-12-07T12:32:15.960Z,4824.00
2022-12-07T12:33:17.956Z,4224.00
2022-12-07T12:34:19.974Z,3396.00
2022-12-07T12:35:21.972Z,3948.00
2022-12-07T12:36:24.039Z,4144.00
2022-12-07T12:37:26.088Z,4100.00
2022-12-07T12:38:28.085Z,4556.00
2022-12-07T12:39:30.115Z,4416.00
2022-12-07T12:40:32.119Z,3948.00
2022-12-07T12:41:34.137Z,4800.00
2022-12-07T12:42:36.157Z,4780.00
2022-12-07T12:43:38.176Z,3612.00
2022-12-07T12:44:40.180Z,2348.00
2022-12-07T12:45:42.248Z,1964.00
2022-12-07T12:46:49.455Z,2332.00
2022-12-07T12:47:45.645Z,2360.00
2022-12-07T12:48:47.689Z,2108.00
2022-12-07T12:49:49.709Z,2040.00
2022-12-07T12:50:51.705Z,1896.00
2022-12-07T12:51:53.724Z,2020.00
2022-12-07T12:52:55.752Z,1820.00
2022-12-07T12:53:57.770Z,1408.00
2022-12-07T12:55:01.084Z,1564.00
2022-12-07T12:56:01.085Z,1664.00
2022-12-07T12:57:03.091Z,1364.00
2022-12-07T12:58:05.099Z,1652.00
2022-12-07T12:59:07.098Z,1412.00
2022-12-07T13:00:09.093Z,1908.00
2022-12-07T13:01:11.136Z,2556.00
2022-12-07T13:02:13.145Z,2716.00
2022-12-07T13:03:15.116Z,2776.00
2022-12-07T13:04:17.129Z,2124.00
2022-12-07T13:05:19.330Z,2356.00
2022-12-07T13:06:20.236Z,2680.00
2022-12-07T13:07:22.207Z,2564.00
2022-12-07T13:08:24.306Z,2220.00
2022-12-07T13:09:26.302Z,2488.00
2022-12-07T13:10:28.357Z,2880.00
2022-12-07T13:11:30.470Z,3248.00
2022-12-07T13:12:32.492Z,3380.00
2022-12-07T13:13:34.509Z,3100.00
2022-12-07T13:14:36.531Z,3732.00
2022-12-07T13:15:38.547Z,3872.00
2022-12-07T13:16:40.645Z,3980.00
2022-12-07T13:17:42.641Z,3564.00
2022-12-07T13:18:44.664Z,3292.00
2022-12-07T13:19:46.706Z,3404.00
2022-12-07T13:20:48.701Z,3460.00
2022-12-07T13:21:50.723Z,3204.00
2022-12-07T13:22:52.744Z,3224.00
2022-12-07T13:23:54.787Z,3336.00
2022-12-07T13:24:56.801Z,3228.00
2022-12-07T13:25:58.799Z,2888.00
2022-12-07T13:27:00.847Z,2868.00
2022-12-07T13:28:02.867Z,3128.00
2022-12-07T13:29:04.896Z,3268.00
2022-12-07T13:30:06.862Z,3336.00
2022-12-07T13:31:08.914Z,3332.00
2022-12-07T13:32:10.993Z,3304.00
2022-12-07T13:33:13.012Z,3280.00
2022-12-07T13:34:15.022Z,3224.00
2022-12-07T13:35:17.039Z,3192.00
2022-12-07T13:36:19.029Z,3180.00
2022-12-07T13:37:21.038Z,3184.00
2022-12-07T13:38:23.051Z,3228.00
2022-12-07T13:39:25.059Z,3252.00
2022-12-07T13:40:27.115Z,3228.00
2022-12-07T13:41:29.153Z,3188.00
2022-12-07T13:42:31.146Z,3184.00
2022-12-07T13:43:33.160Z,3180.00
2022-12-07T13:44:39.130Z,3116.00
2022-12-07T13:45:36.610Z,3056.00
2022-12-07T13:46:38.716Z,3004.00
2022-12-07T13:47:40.726Z,2968.00
2022-12-07T13:48:42.749Z,3024.00
2022-12-07T13:49:47.922Z,3020.00
2022-12-07T13:50:46.201Z,2876.00
2022-12-07T13:51:48.220Z,2724.00
2022-12-07T13:52:50.255Z,2604.00
2022-12-07T13:53:52.284Z,2520.00
2022-12-07T13:54:54.325Z,2412.00
2022-12-07T13:55:56.322Z,2380.00
2022-12-07T13:56:58.348Z,2392.00
2022-12-07T13:58:00.350Z,2472.00
2022-12-07T13:59:02.485Z,2528.00
2022-12-07T14:00:04.520Z,2512.00
2022-12-07T14:01:06.581Z,2412.00
2022-12-07T14:02:08.626Z,2380.00
2022-12-07T14:03:10.634Z,2328.00
2022-12-07T14:04:12.646Z,2348.00
2022-12-07T14:05:14.656Z,2468.00
2022-12-07T14:06:16.676Z,2532.00
2022-12-07T14:07:18.709Z,2412.00
2022-12-07T14:08:20.764Z,2156.00
2022-12-07T14:09:22.779Z,1988.00
2022-12-07T14:10:25.555Z,1944.00
2022-12-07T14:11:26.451Z,1912.00
2022-12-07T14:12:28.471Z,1808.00
2022-12-07T14:13:30.499Z,1700.00
2022-12-07T14:14:36.538Z,1596.00
2022-12-07T14:15:34.477Z,1500.00
2022-12-07T14:16:36.613Z,1420.00
2022-12-07T14:17:38.616Z,1360.00
2022-12-07T14:18:40.615Z,1300.00
2022-12-07T14:19:47.922Z,1244.00
2022-12-07T14:20:44.071Z,1200.00
2022-12-07T14:21:46.093Z,1164.00
2022-12-07T14:22:48.113Z,1140.00
2022-12-07T14:23:50.129Z,1144.00
2022-12-07T14:24:52.149Z,1152.00
2022-12-07T14:25:54.187Z,1140.00
2022-12-07T14:26:56.201Z,1128.00
2022-12-07T14:27:58.209Z,1124.00
2022-12-07T14:29:00.229Z,1112.00
2022-12-07T14:30:02.231Z,1076.00
2022-12-07T14:31:04.298Z,1012.00
2022-12-07T14:32:06.319Z,952.00
2022-12-07T14:33:08.322Z,892.00
2022-12-07T14:34:10.348Z,844.00
2022-12-07T14:35:12.388Z,792.00
2022-12-07T14:36:14.417Z,732.00
2022-12-07T14:37:16.439Z,672.00
2022-12-07T14:38:18.445Z,620.00
2022-12-07T14:39:20.463Z,576.00
2022-12-07T14:40:22.452Z,544.00
2022-12-07T14:41:24.492Z,516.00
2022-12-07T14:42:26.512Z,492.00
2022-12-07T14:43:28.513Z,460.00
2022-12-07T14:44:35.510Z,432.00
2022-12-07T14:45:31.952Z,404.00
2022-12-07T14:46:34.035Z,376.00
2022-12-07T14:49:37.957Z,336.00
2022-12-07T14:53:25.019Z,300.00
2022-12-07T14:53:32.016Z,272.00
2022-12-07T14:54:34.079Z,256.00
2022-12-07T14:55:36.052Z,248.00
2022-12-07T14:56:38.070Z,236.00
2022-12-07T14:57:40.102Z,224.00
2022-12-07T14:58:42.150Z,208.00
2022-12-07T14:59:45.398Z,196.00
2022-12-07T15:00:45.259Z,184.00
2022-12-07T15:01:47.257Z,168.00
2022-12-07T15:02:49.276Z,156.00
2022-12-07T15:03:51.381Z,148.00
2022-12-07T15:04:53.459Z,136.00
2022-12-07T15:05:55.485Z,132.00
2022-12-07T15:06:57.508Z,120.00
2022-12-07T15:07:59.632Z,112.00
